createdAt,value
2022-08-02T00:03:36.588Z,100383.31
2022-08-02T00:08:58.652Z,100376.16
2022-08-02T00:14:20.574Z,100388.53
2022-08-02T00:19:42.638Z,100394.28
2022-08-02T00:25:05.345Z,100377.44
2022-08-02T00:30:27.253Z,100388.53
2022-08-02T00:35:49.135Z,100401.94
2022-08-02T00:41:12.994Z,100396.91
2022-08-02T00:46:34.814Z,100399.88
2022-08-02T00:51:56.669Z,100394.53
2022-08-02T00:57:18.590Z,100393.19
2022-08-02T01:02:40.800Z,100388.41
2022-08-02T01:08:03.733Z,100395.44
2022-08-02T01:13:26.392Z,100412.91
2022-08-02T01:18:54.162Z,100418.28
2022-08-02T01:24:48.161Z,100415.78
2022-08-02T01:30:11.206Z,100413.91
2022-08-02T01:35:50.780Z,100414.19
2022-08-02T01:41:19.812Z,100417.38
2022-08-02T01:46:43.268Z,100407.38
2022-08-02T01:52:09.416Z,100421.94
2022-08-02T01:57:39.194Z,100406.00
2022-08-02T02:03:05.917Z,100415.66
2022-08-02T02:08:36.293Z,100419.50
2022-08-02T02:14:00.729Z,100406.38
2022-08-02T02:19:24.003Z,100425.72
2022-08-02T02:24:45.822Z,100425.50
2022-08-02T02:30:09.537Z,100425.72
2022-08-02T02:35:34.765Z,100415.94
2022-08-02T02:41:00.752Z,100426.13
2022-08-02T02:46:23.548Z,100428.94
2022-08-02T02:51:46.255Z,100435.69
2022-08-02T02:57:09.600Z,100439.34
2022-08-02T03:02:34.483Z,100447.91
2022-08-02T03:07:56.337Z,100439.91
2022-08-02T03:13:18.732Z,100443.69
2022-08-02T03:18:42.951Z,100426.91
2022-08-02T03:24:05.510Z,100434.25
2022-08-02T03:29:30.346Z,100434.25
2022-08-02T03:34:54.566Z,100430.28
2022-08-02T03:40:17.874Z,100416.59
2022-08-02T03:45:43.305Z,100420.09
2022-08-02T03:51:05.737Z,100445.44
2022-08-02T03:56:29.092Z,100447.41
2022-08-02T04:01:50.916Z,100442.78
2022-08-02T04:07:12.748Z,100449.34
2022-08-02T04:12:34.585Z,100470.22
2022-08-02T04:17:59.804Z,100467.25
2022-08-02T04:23:24.188Z,100473.69
2022-08-02T04:28:48.802Z,100484.41
2022-08-02T04:34:14.807Z,100496.50
2022-08-02T04:39:37.565Z,100492.84
2022-08-02T04:44:59.433Z,100496.94
2022-08-02T04:50:21.290Z,100505.28
2022-08-02T04:55:43.198Z,100503.94
2022-08-02T05:01:05.071Z,100509.34
2022-08-02T05:06:27.300Z,100522.56
2022-08-02T05:11:55.112Z,100529.47
2022-08-02T05:17:17.110Z,100526.03
2022-08-02T05:22:39.552Z,100539.75
2022-08-02T05:28:01.399Z,100542.97
2022-08-02T05:33:23.197Z,100550.69
2022-08-02T05:38:49.746Z,100554.84
2022-08-02T05:44:12.023Z,100552.38
2022-08-02T05:49:33.979Z,100565.38
2022-08-02T05:55:04.652Z,100564.78
2022-08-02T06:00:30.526Z,100562.22
2022-08-02T06:06:09.768Z,100577.19
2022-08-02T06:11:38.239Z,100569.75
2022-08-02T06:17:04.586Z,100567.66
2022-08-02T06:22:35.999Z,100565.34
2022-08-02T06:28:04.936Z,100576.53
2022-08-02T06:33:33.561Z,100584.75
2022-08-02T06:38:58.122Z,100582.56
2022-08-02T06:44:45.622Z,100582.13
2022-08-02T06:50:02.062Z,100583.53
2022-08-02T06:55:24.084Z,100582.13
2022-08-02T07:00:45.952Z,100594.00
2022-08-02T07:06:08.474Z,100596.97
2022-08-02T07:11:30.286Z,100587.94
2022-08-02T07:16:52.111Z,100595.34
2022-08-02T07:22:13.994Z,100587.69
2022-08-02T07:27:36.215Z,100579.63
2022-08-02T07:32:58.863Z,100578.94
2022-08-02T07:38:20.698Z,100586.19
2022-08-02T07:43:42.754Z,100588.97
2022-08-02T07:49:04.686Z,100593.16
2022-08-02T07:54:26.585Z,100592.78
2022-08-02T07:59:48.419Z,100578.78
2022-08-02T08:05:11.353Z,100583.63
2022-08-02T08:10:34.002Z,100601.22
2022-08-02T08:15:55.842Z,100593.56
2022-08-02T08:21:17.897Z,100597.28
2022-08-02T08:26:40.042Z,100597.66
2022-08-02T08:32:02.315Z,100605.19
2022-08-02T08:37:24.194Z,100602.28
2022-08-02T08:42:46.217Z,100593.25
2022-08-02T08:48:11.251Z,100603.44
2022-08-02T08:53:40.345Z,100589.69
2022-08-02T08:59:04.547Z,100601.03
2022-08-02T09:04:26.347Z,100604.81
2022-08-02T09:09:48.360Z,100599.53
2022-08-02T09:15:15.850Z,100599.47
2022-08-02T09:21:04.517Z,100603.25
2022-08-02T09:26:28.705Z,100598.88
2022-08-02T09:31:51.566Z,100607.56
2022-08-02T09:37:30.525Z,100601.19
2022-08-02T09:43:01.429Z,100609.63
2022-08-02T09:48:23.244Z,100617.19
2022-08-02T09:53:45.163Z,100604.25
2022-08-02T09:59:07.751Z,100608.50
2022-08-02T10:04:31.434Z,100607.38
2022-08-02T10:09:53.492Z,100610.59
2022-08-02T10:15:17.484Z,100601.66
2022-08-02T10:20:44.712Z,100604.66
2022-08-02T10:26:07.896Z,100598.84
2022-08-02T10:31:43.600Z,100608.84
2022-08-02T10:37:06.794Z,100596.94
2022-08-02T10:42:43.544Z,100607.81
2022-08-02T10:48:11.134Z,100599.00
2022-08-02T10:53:34.131Z,100606.13
2022-08-02T10:59:32.277Z,100603.91
2022-08-02T11:04:54.033Z,100599.06
2022-08-02T11:10:36.847Z,100595.63
2022-08-02T11:16:04.421Z,100591.00
2022-08-02T11:21:30.554Z,100593.03
2022-08-02T11:26:52.880Z,100592.34
2022-08-02T11:32:30.659Z,100592.13
2022-08-02T11:37:53.310Z,100599.16
2022-08-02T11:43:23.736Z,100599.09
2022-08-02T11:48:45.581Z,100598.34
2022-08-02T11:54:07.416Z,100607.28
2022-08-02T11:59:29.246Z,100608.28
2022-08-02T12:04:57.322Z,100600.31
2022-08-02T12:10:23.164Z,100598.50
2022-08-02T12:15:46.579Z,100599.09
2022-08-02T12:21:26.377Z,100592.94
2022-08-02T12:26:48.240Z,100594.53
2022-08-02T12:32:24.561Z,100599.63
2022-08-02T12:37:50.817Z,100599.66
2022-08-02T12:43:24.638Z,100601.84
2022-08-02T12:49:08.346Z,100597.19
2022-08-02T12:54:32.226Z,100599.22
2022-08-02T12:59:54.165Z,100596.13
2022-08-02T13:05:16.095Z,100601.63
2022-08-02T13:10:38.215Z,100601.94
2022-08-02T13:16:00.483Z,100602.69
2022-08-02T13:21:41.174Z,100607.97
2022-08-02T13:27:07.851Z,100593.94
2022-08-02T13:32:29.762Z,100602.59
2022-08-02T13:37:51.663Z,100588.41
2022-08-02T13:43:13.495Z,100602.94
2022-08-02T13:48:35.330Z,100604.50
2022-08-02T13:53:57.262Z,100585.34
2022-08-02T13:59:54.808Z,100603.63
2022-08-02T14:05:00.876Z,100601.22
2022-08-02T14:10:22.813Z,100593.09
2022-08-02T14:15:45.088Z,100595.66
2022-08-02T14:21:06.937Z,100595.41
2022-08-02T14:26:28.839Z,100587.38
2022-08-02T14:31:50.646Z,100582.25
2022-08-02T14:37:12.477Z,100589.91
2022-08-02T14:42:36.315Z,100588.25
2022-08-02T14:47:58.217Z,100591.75
2022-08-02T14:53:20.111Z,100581.81
2022-08-02T14:58:41.967Z,100588.91
2022-08-02T15:04:03.955Z,100592.84
2022-08-02T15:09:25.800Z,100587.19
2022-08-02T15:14:48.008Z,100591.19
2022-08-02T15:20:25.225Z,100588.75
2022-08-02T15:25:47.957Z,100592.44
2022-08-02T15:31:09.868Z,100593.19
2022-08-02T15:36:31.717Z,100595.06
2022-08-02T15:41:53.547Z,100603.13
2022-08-02T15:47:15.815Z,100581.16
2022-08-02T15:52:37.826Z,100583.25
2022-08-02T15:57:59.631Z,100585.69
2022-08-02T16:03:22.128Z,100580.69
2022-08-02T16:08:53.532Z,100591.81
2022-08-02T16:14:16.797Z,100589.78
2022-08-02T16:19:48.805Z,100594.69
2022-08-02T16:25:17.081Z,100590.84
2022-08-02T16:30:39.441Z,100608.91
2022-08-02T16:36:01.292Z,100607.50
2022-08-02T16:41:23.235Z,100611.41
2022-08-02T16:47:05.136Z,100606.13
2022-08-02T16:52:27.625Z,100615.09
2022-08-02T16:57:50.298Z,100610.94
2022-08-02T17:03:13.587Z,100623.81
2022-08-02T17:08:55.278Z,100608.94
2022-08-02T17:14:17.106Z,100620.66
2022-08-02T17:19:39.224Z,100622.78
2022-08-02T17:25:01.135Z,100618.50
2022-08-02T17:30:26.643Z,100617.25
2022-08-02T17:35:52.896Z,100615.41
2022-08-02T17:41:15.173Z,100632.03
2022-08-02T17:46:37.408Z,100627.28
2022-08-02T17:52:49.023Z,100623.50
2022-08-02T17:57:58.321Z,100631.03
2022-08-02T18:03:20.961Z,100641.72
2022-08-02T18:08:44.774Z,100648.38
2022-08-02T18:14:13.402Z,100657.41
2022-08-02T18:19:53.959Z,100655.94
2022-08-02T18:25:36.580Z,100649.06
2022-08-02T18:31:00.586Z,100656.13
2022-08-02T18:36:29.407Z,100649.75
2022-08-02T18:41:51.904Z,100667.94
2022-08-02T18:47:14.053Z,100662.25
2022-08-02T18:52:36.412Z,100674.41
2022-08-02T18:58:17.986Z,100683.50
2022-08-02T19:03:40.089Z,100672.81
2022-08-02T19:09:11.153Z,100685.50
2022-08-02T19:14:35.528Z,100697.66
2022-08-02T19:19:57.406Z,100689.50
2022-08-02T19:25:19.359Z,100688.59
2022-08-02T19:30:41.195Z,100702.19
2022-08-02T19:36:06.064Z,100697.16
2022-08-02T19:41:27.946Z,100691.16
2022-08-02T19:47:06.016Z,100694.75
2022-08-02T19:52:34.294Z,100686.16
2022-08-02T19:57:56.534Z,100683.84
2022-08-02T20:03:19.653Z,100678.69
2022-08-02T20:09:01.781Z,100678.59
2022-08-02T20:14:27.563Z,100682.75
2022-08-02T20:19:49.773Z,100686.31
2022-08-02T20:25:15.906Z,100685.00
2022-08-02T20:30:38.278Z,100692.31
2022-08-02T20:36:00.122Z,100693.63
2022-08-02T20:41:36.716Z,100695.56
2022-08-02T20:47:04.957Z,100696.94
2022-08-02T20:52:28.229Z,100692.53
2022-08-02T20:58:00.904Z,100692.06
2022-08-02T21:03:23.476Z,100703.31
2022-08-02T21:08:46.133Z,100702.44
2022-08-02T21:14:09.222Z,100703.09
2022-08-02T21:19:31.102Z,100711.56
2022-08-02T21:24:52.938Z,100717.81
2022-08-02T21:30:15.009Z,100710.38
2022-08-02T21:35:36.866Z,100710.94
2022-08-02T21:40:58.677Z,100703.34
2022-08-02T21:46:20.493Z,100712.25
2022-08-02T21:51:49.584Z,100708.94
2022-08-02T21:57:15.728Z,100717.66
2022-08-02T22:02:38.554Z,100715.97
2022-08-02T22:08:00.440Z,100717.03
2022-08-02T22:13:22.287Z,100714.41
2022-08-02T22:18:51.366Z,100721.03
2022-08-02T22:24:19.483Z,100720.09
2022-08-02T22:29:41.510Z,100725.13
2022-08-02T22:35:08.733Z,100726.19
2022-08-02T22:40:30.784Z,100726.59
2022-08-02T22:45:54.996Z,100730.44
2022-08-02T22:51:16.893Z,100724.53
2022-08-02T22:56:38.717Z,100729.78
2022-08-02T23:02:06.537Z,100728.00
2022-08-02T23:07:28.417Z,100730.63
2022-08-02T23:12:57.987Z,100734.03
2022-08-02T23:18:19.893Z,100741.91
2022-08-02T23:23:44.851Z,100728.13
2022-08-02T23:29:06.720Z,100746.09
2022-08-02T23:34:28.604Z,100731.38
2022-08-02T23:39:51.030Z,100729.34
2022-08-02T23:45:12.871Z,100720.34
2022-08-02T23:50:34.708Z,100740.66
2022-08-02T23:55:56.775Z,100743.72
